Terminal Aerodrome Forecast
Issued by NWS Greer, SC

Home | Current Version | Previous Version | Text Only | Print | Product List | Glossary On
Versions: 1 2 3 4 5 6 7 8 9 10 11 12 13 14 15 16 17 18 19 20 21 22 23 24 25 26 27 28 29 30 31 32 33 34 35 36
652
FTUS42 KGSP 080203 AAA
TAFAVL
TAF AMD
KAVL 080203Z 0802/0824 34005KT P6SM BKN015
     FM080800 34008KT P6SM OVC015
     FM081100 34012G20KT P6SM OVC025
     FM081400 34015G25KT P6SM FEW035 OVC100
     FM081800 34018G28KT P6SM SCT150 BKN250=

USA.gov is the U.S. government's official web portal to all federal, state and local government web resources and services.